createdAt,value
2022-09-11T00:00:20.619Z,11.12
2022-09-11T00:05:21.359Z,11.55
2022-09-11T00:10:23.812Z,12.05
2022-09-11T00:15:24.659Z,11.93
2022-09-11T00:20:25.486Z,12.37
2022-09-11T00:25:26.301Z,13.07
2022-09-11T00:30:28.374Z,13.43
2022-09-11T00:35:30.115Z,13.07
2022-09-11T00:40:31.421Z,13.13
2022-09-11T00:45:32.426Z,13.43
2022-09-11T00:50:33.901Z,14.00
2022-09-11T00:55:37.400Z,13.40
2022-09-11T01:00:42.267Z,13.65
2022-09-11T01:05:43.993Z,13.90
2022-09-11T01:11:28.826Z,13.27
2022-09-11T01:18:09.398Z,14.00
2022-09-11T01:23:45.977Z,13.02
2022-09-11T01:29:19.609Z,13.52
2022-09-11T01:39:37.873Z,13.75
2022-09-11T01:44:44.451Z,14.52
2022-09-11T01:53:21.514Z,15.38
2022-09-11T01:58:27.369Z,15.65
2022-09-11T02:03:45.525Z,17.08
2022-09-11T02:08:54.891Z,16.85
2022-09-11T02:14:23.784Z,17.73
2022-09-11T02:19:28.614Z,18.20
2022-09-11T02:24:29.503Z,18.25
2022-09-11T02:29:30.902Z,19.95
2022-09-11T02:34:35.562Z,19.42
2022-09-11T02:46:47.922Z,18.27
2022-09-11T02:52:02.930Z,20.00
2022-09-11T02:57:54.994Z,20.77
2022-09-11T03:02:55.972Z,21.25
2022-09-11T03:07:57.406Z,20.40
2022-09-11T03:12:58.990Z,18.73
2022-09-11T03:18:00.928Z,19.58
2022-09-11T03:23:04.578Z,17.80
2022-09-11T03:28:06.329Z,19.62
2022-09-11T03:33:08.234Z,19.47
2022-09-11T03:38:09.686Z,18.95
2022-09-11T03:43:11.836Z,19.33
2022-09-11T03:48:12.655Z,19.98
2022-09-11T03:53:16.685Z,22.25
2022-09-11T03:58:18.890Z,20.85
2022-09-11T04:03:20.904Z,24.67
2022-09-11T04:08:22.221Z,22.95
2022-09-11T04:13:32.124Z,22.23
2022-09-11T04:18:36.997Z,19.48
2022-09-11T04:28:39.249Z,20.37
2022-09-11T04:33:40.307Z,19.15
2022-09-11T04:38:41.798Z,18.02
2022-09-11T04:43:45.202Z,18.20
2022-09-11T04:48:52.905Z,20.80
2022-09-11T04:53:58.469Z,18.73
2022-09-11T04:59:06.521Z,19.33
2022-09-11T05:04:11.980Z,18.77
2022-09-11T05:09:15.398Z,18.67
2022-09-11T05:14:17.572Z,17.95
2022-09-11T05:19:21.287Z,19.10
2022-09-11T05:24:22.208Z,19.03
2022-09-11T05:29:32.208Z,18.80
2022-09-11T05:34:41.255Z,18.40
2022-09-11T05:39:43.989Z,18.98
2022-09-11T05:44:46.548Z,20.00
2022-09-11T05:49:49.173Z,18.00
2022-09-11T05:54:50.879Z,20.48
2022-09-11T05:59:52.135Z,21.15
2022-09-11T06:04:53.116Z,21.33
2022-09-11T06:10:00.914Z,21.48
2022-09-11T06:15:05.469Z,21.27
2022-09-11T06:20:11.645Z,21.37
2022-09-11T06:25:13.761Z,22.27
2022-09-11T06:30:15.071Z,20.17
2022-09-11T06:35:18.494Z,21.10
2022-09-11T06:40:19.815Z,20.73
2022-09-11T06:45:21.836Z,20.98
2022-09-11T06:50:22.948Z,19.77
2022-09-11T06:55:36.008Z,20.73
2022-09-11T07:00:40.982Z,20.02
2022-09-11T07:05:47.387Z,19.30
2022-09-11T07:10:49.076Z,20.23
2022-09-11T07:15:59.678Z,18.95
2022-09-11T07:21:04.568Z,18.08
2022-09-11T07:26:09.132Z,18.42
2022-09-11T07:31:19.963Z,16.10
2022-09-11T07:36:25.465Z,17.92
2022-09-11T07:41:27.831Z,17.90
2022-09-11T07:46:30.388Z,19.92
2022-09-11T07:51:37.232Z,18.85
2022-09-11T07:56:40.718Z,17.73
2022-09-11T08:01:42.925Z,17.00
2022-09-11T08:06:44.250Z,17.75
2022-09-11T08:11:52.676Z,16.75
2022-09-11T08:16:54.237Z,19.08
2022-09-11T08:21:55.305Z,17.12
2022-09-11T08:26:56.479Z,16.45
2022-09-11T08:32:02.189Z,15.48
2022-09-11T08:37:04.531Z,15.05
2022-09-11T08:42:15.704Z,16.85
2022-09-11T08:47:38.255Z,15.38
2022-09-11T08:52:40.687Z,15.23
2022-09-11T08:57:55.436Z,16.50
2022-09-11T09:04:09.931Z,15.73
2022-09-11T09:12:23.079Z,16.67
2022-09-11T09:17:32.336Z,14.50
2022-09-11T09:22:55.285Z,13.80
2022-09-11T09:33:47.172Z,14.48
2022-09-11T09:38:48.951Z,13.32
2022-09-11T09:44:19.734Z,12.70
2022-09-11T09:49:27.297Z,11.77
2022-09-11T09:54:33.527Z,12.90
2022-09-11T10:00:06.606Z,13.62
2022-09-11T10:05:30.563Z,13.13
2022-09-11T10:10:37.288Z,11.45
2022-09-11T10:15:39.273Z,10.43
2022-09-11T10:20:40.545Z,11.88
2022-09-11T10:25:47.336Z,9.48
2022-09-11T10:31:01.621Z,9.90
2022-09-11T10:36:06.018Z,9.55
2022-09-11T10:41:20.186Z,8.85
2022-09-11T10:46:45.310Z,7.87
2022-09-11T10:54:40.862Z,8.60
2022-09-11T11:00:12.221Z,8.52
2022-09-11T11:05:30.582Z,7.65
2022-09-11T11:10:47.687Z,7.40
2022-09-11T11:16:13.675Z,6.85
2022-09-11T11:24:42.211Z,6.80
2022-09-11T11:30:37.921Z,7.45
2022-09-11T11:36:07.637Z,6.15
2022-09-11T11:41:34.292Z,5.55
2022-09-11T11:46:39.451Z,5.05
2022-09-11T11:51:53.343Z,5.15
2022-09-11T11:57:21.609Z,4.80
2022-09-11T12:02:34.965Z,4.90
2022-09-11T12:07:38.153Z,5.15
2022-09-11T12:12:53.425Z,4.10
2022-09-11T12:18:23.335Z,4.40
2022-09-11T12:24:08.877Z,5.12
2022-09-11T12:29:57.033Z,4.93
2022-09-11T12:35:11.613Z,5.25
2022-09-11T12:40:22.257Z,3.97
2022-09-11T12:45:36.236Z,4.45
2022-09-11T12:50:52.235Z,3.95
2022-09-11T12:56:00.265Z,3.08
2022-09-11T13:01:22.434Z,3.47
2022-09-11T13:06:35.945Z,3.30
2022-09-11T13:11:51.775Z,3.37
2022-09-11T13:16:59.533Z,3.35
2022-09-11T13:22:01.147Z,3.03
2022-09-11T13:27:27.497Z,2.90
2022-09-11T13:32:31.641Z,3.00
2022-09-11T13:37:46.334Z,2.78
2022-09-11T13:42:48.708Z,2.90
2022-09-11T13:52:52.962Z,5.28
2022-09-11T13:58:00.269Z,4.80
2022-09-11T14:03:01.536Z,4.68
2022-09-11T14:08:24.620Z,4.57
2022-09-11T14:14:11.185Z,4.30
2022-09-11T14:19:17.494Z,4.28
2022-09-11T14:24:36.594Z,4.65
2022-09-11T14:29:37.508Z,3.65
2022-09-11T14:34:38.571Z,3.55
2022-09-11T14:39:47.048Z,3.78
2022-09-11T14:44:48.547Z,4.18
2022-09-11T14:49:54.875Z,4.07
2022-09-11T14:54:59.304Z,4.10
2022-09-11T15:00:00.373Z,3.90
2022-09-11T15:05:02.180Z,4.05
2022-09-11T15:10:03.368Z,3.63
2022-09-11T15:15:05.167Z,3.95
2022-09-11T15:20:08.671Z,3.97
2022-09-11T15:25:10.443Z,4.32
2022-09-11T15:30:11.752Z,3.70
2022-09-11T15:35:12.648Z,4.32
2022-09-11T15:40:15.324Z,3.80
2022-09-11T15:45:16.337Z,3.58
2022-09-11T15:50:23.623Z,3.97
2022-09-11T15:55:26.522Z,3.05
2022-09-11T16:00:28.711Z,2.87
2022-09-11T16:05:38.156Z,3.12
2022-09-11T16:10:39.091Z,3.10
2022-09-11T16:15:40.338Z,3.10
2022-09-11T16:20:42.750Z,3.08
2022-09-11T16:25:43.894Z,3.08
2022-09-11T16:30:48.398Z,2.83
2022-09-11T16:36:00.308Z,3.42
2022-09-11T16:41:15.866Z,2.67
2022-09-11T16:46:23.385Z,3.72
2022-09-11T16:51:24.933Z,3.15
2022-09-11T16:56:25.738Z,3.15
2022-09-11T17:01:28.543Z,3.55
2022-09-11T17:06:29.564Z,2.97
2022-09-11T17:11:32.022Z,3.20
2022-09-11T17:16:35.162Z,3.05
2022-09-11T17:21:37.179Z,2.58
2022-09-11T17:26:38.487Z,2.40
2022-09-11T17:31:40.074Z,2.83
2022-09-11T17:36:40.870Z,3.20
2022-09-11T17:41:43.393Z,2.90
2022-09-11T17:46:44.218Z,3.78
2022-09-11T17:51:45.055Z,3.35
2022-09-11T17:56:46.321Z,3.10
2022-09-11T18:01:47.180Z,3.75
2022-09-11T18:06:47.902Z,3.37
2022-09-11T18:11:50.451Z,4.03
2022-09-11T18:16:51.184Z,4.35
2022-09-11T18:21:52.823Z,4.20
2022-09-11T18:26:58.573Z,4.60
2022-09-11T18:32:02.946Z,4.20
2022-09-11T18:37:04.291Z,4.65
2022-09-11T18:42:06.391Z,4.93
2022-09-11T18:47:07.225Z,4.90
2022-09-11T18:52:08.391Z,4.72
2022-09-11T18:57:09.178Z,4.82
2022-09-11T19:02:10.387Z,4.97
2022-09-11T19:07:12.662Z,4.68
2022-09-11T19:12:15.451Z,5.37
2022-09-11T19:17:16.558Z,4.53
2022-09-11T19:22:22.285Z,4.50
2022-09-11T19:27:27.002Z,4.72
2022-09-11T19:32:27.779Z,5.80
2022-09-11T19:37:28.578Z,5.28
2022-09-11T19:42:29.714Z,5.22
2022-09-11T19:47:30.577Z,5.30
2022-09-11T19:52:33.179Z,5.18
2022-09-11T19:57:34.204Z,5.68
2022-09-11T20:02:35.690Z,6.18
2022-09-11T20:07:39.264Z,6.20
2022-09-11T20:12:40.147Z,8.45
2022-09-11T20:17:43.660Z,6.97
2022-09-11T20:22:44.391Z,7.28
2022-09-11T20:27:45.641Z,8.07
2022-09-11T20:32:46.387Z,8.10
2022-09-11T20:37:47.999Z,7.43
2022-09-11T20:42:48.868Z,7.95
2022-09-11T20:47:49.678Z,7.47
2022-09-11T20:52:50.447Z,6.93
2022-09-11T20:57:51.201Z,6.72
2022-09-11T21:02:51.986Z,6.80
2022-09-11T21:07:52.879Z,7.15
2022-09-11T21:12:54.538Z,7.55
2022-09-11T21:17:55.924Z,8.48
2022-09-11T21:22:56.688Z,8.50
2022-09-11T21:27:58.102Z,8.88
2022-09-11T21:32:58.827Z,9.38
2022-09-11T21:38:00.213Z,10.43
2022-09-11T21:43:01.459Z,9.95
2022-09-11T21:48:04.831Z,10.05
2022-09-11T21:53:06.791Z,10.98
2022-09-11T21:58:12.348Z,9.43
2022-09-11T22:03:15.472Z,9.52
2022-09-11T22:13:18.960Z,9.13
2022-09-11T22:18:19.767Z,9.02
2022-09-11T22:23:21.088Z,8.75
2022-09-11T22:28:22.156Z,8.18
2022-09-11T22:33:23.669Z,8.50
2022-09-11T22:38:24.462Z,8.18
2022-09-11T22:43:25.288Z,8.20
2022-09-11T22:48:26.177Z,8.20
2022-09-11T22:53:27.911Z,8.00
2022-09-11T22:58:29.743Z,9.05
2022-09-11T23:03:30.768Z,7.40
2022-09-11T23:08:38.909Z,8.20
2022-09-11T23:13:41.912Z,7.95
2022-09-11T23:18:43.456Z,7.97
2022-09-11T23:23:52.634Z,7.68
2022-09-11T23:28:55.715Z,7.55
2022-09-11T23:33:59.619Z,8.48
2022-09-11T23:39:00.775Z,8.15
2022-09-11T23:44:02.812Z,8.13
2022-09-11T23:49:03.827Z,8.82
2022-09-11T23:54:05.002Z,8.05
2022-09-11T23:59:05.950Z,9.27
